Time;durP1;ratioP1;P1;durP2;ratioP2;P2;SDS_P1;SDS_P2;PMS_P1;PMS_P2;Temp;Humidity;BMP_temperature;BMP_pressure;BME280_temperature;BME280_humidity;BME280_pressure;Samples;Min_cycle;Max_cycle;Signal;HPM_P1;HPM_P2
2022/05/18 00:01:59;;;;;;;;;8.33;7.33;;;;;25.39;47.65;101338.13;5101702;27;45551;-73
2022/05/18 00:04:25;;;;;;;;;5.67;4.67;;;;;25.36;47.80;101333.13;5120475;27;45248;-73
2022/05/18 00:06:51;;;;;;;;;4.67;4.33;;;;;25.34;47.58;101336.09;5119819;27;46190;-74
2022/05/18 00:09:16;;;;;;;;;5.00;4.00;;;;;25.28;48.11;101325.28;5119693;27;45320;-74
2022/05/18 00:11:42;;;;;;;;;8.00;6.33;;;;;25.13;47.82;101315.59;5120271;27;45412;-74
2022/05/18 00:14:07;;;;;;;;;5.33;5.33;;;;;25.25;47.98;101345.63;5120650;27;45916;-72
2022/05/18 00:16:33;;;;;;;;;5.67;5.67;;;;;25.04;48.12;101310.69;5101379;27;48113;-74
2022/05/18 00:18:58;;;;;;;;;5.00;5.00;;;;;25.20;48.27;101345.44;5119708;27;45388;-74
2022/05/18 00:21:25;;;;;;;;;4.00;4.00;;;;;25.18;48.47;101344.84;5101479;27;45330;-74
2022/05/18 00:23:51;;;;;;;;;5.33;5.33;;;;;24.73;48.57;101274.34;5120176;27;45370;-73
2022/05/18 00:26:19;;;;;;;;;9.33;6.00;;;;;24.32;48.35;101211.59;5119707;27;46392;-74
2022/05/18 00:28:44;;;;;;;;;6.33;6.33;;;;;24.99;48.77;101337.69;5101080;27;46307;-72
2022/05/18 00:31:12;;;;;;;;;7.00;7.00;;;;;24.95;49.20;101337.31;5119574;27;45266;-71
2022/05/18 00:33:38;;;;;;;;;7.00;6.00;;;;;24.98;49.89;101357.78;5119717;27;45875;-75
2022/05/18 00:36:04;;;;;;;;;4.33;4.33;;;;;24.90;50.00;101353.47;5119264;27;46243;-73
2022/05/18 00:38:29;;;;;;;;;5.00;5.00;;;;;24.91;49.96;101366.03;5100754;27;45842;-74
2022/05/18 00:40:55;;;;;;;;;6.00;6.00;;;;;24.80;50.11;101350.41;5119965;27;45480;-73
2022/05/18 00:43:29;;;;;;;;;6.00;6.00;;;;;24.81;50.93;101377.38;5120006;27;45358;-73
2022/05/18 00:45:59;;;;;;;;;5.00;5.00;;;;;24.75;50.87;101374.72;5100616;27;48841;-72
2022/05/18 00:48:25;;;;;;;;;9.00;9.00;;;;;24.72;51.48;101377.91;5119451;27;45339;-73
2022/05/18 00:50:54;;;;;;;;;6.33;5.33;;;;;24.49;51.48;101344.00;5119867;27;45287;-73
2022/05/18 00:53:25;;;;;;;;;6.67;5.67;;;;;24.52;51.78;101365.28;5119501;27;45377;-72
2022/05/18 00:56:00;;;;;;;;;6.00;6.00;;;;;24.56;52.12;101380.09;5119128;27;45778;-72
2022/05/18 00:58:43;;;;;;;;;7.00;7.00;;;;;24.25;52.40;101336.63;5119233;27;45419;-72
2022/05/18 01:01:10;;;;;;;;;6.67;6.00;;;;;24.35;53.11;101358.72;5100235;27;45243;-74
2022/05/18 01:03:40;;;;;;;;;8.00;6.67;;;;;23.83;53.25;101279.25;5100657;27;45281;-72
2022/05/18 01:06:16;;;;;;;;;6.33;6.00;;;;;24.44;53.45;101390.03;5100188;27;48556;-74
2022/05/18 01:09:04;;;;;;;;;6.00;6.00;;;;;24.38;53.57;101388.19;5118783;27;45391;-73
2022/05/18 01:11:33;;;;;;;;;7.33;7.33;;;;;24.35;53.65;101404.94;5118763;27;45229;-72
2022/05/18 01:13:58;;;;;;;;;5.00;5.00;;;;;23.42;53.56;101267.91;5119108;27;45473;-72
2022/05/18 01:16:26;;;;;;;;;5.33;5.33;;;;;23.52;53.86;101295.44;5101791;27;48206;-70
2022/05/18 01:18:52;;;;;;;;;7.67;6.00;;;;;24.18;54.00;101406.47;5121100;27;45412;-72
2022/05/18 01:21:18;;;;;;;;;6.00;6.00;;;;;24.17;54.08;101399.38;5118867;27;45239;-74
2022/05/18 01:23:57;;;;;;;;;6.33;6.33;;;;;24.06;54.39;101384.59;5118952;27;45507;-73
2022/05/18 01:26:43;;;;;;;;;6.33;6.33;;;;;24.13;54.29;101403.56;5099767;27;45842;-73
2022/05/18 01:29:10;;;;;;;;;6.00;6.00;;;;;24.13;54.12;101409.00;5118466;27;45482;-74
2022/05/18 01:31:44;;;;;;;;;6.33;5.00;;;;;24.08;54.00;101411.53;5100009;27;45431;-73
2022/05/18 01:34:11;;;;;;;;;8.00;6.00;;;;;24.03;54.16;101422.22;5099839;27;45609;-73
2022/05/18 01:36:36;;;;;;;;;7.67;6.67;;;;;23.92;54.79;101413.69;5118265;27;46061;-72
2022/05/18 01:39:04;;;;;;;;;9.67;6.00;;;;;23.42;54.73;101330.31;5099537;27;45534;-73
2022/05/18 01:41:37;;;;;;;;;6.33;6.33;;;;;23.72;54.48;101380.38;5118588;27;45321;-71
2022/05/18 01:44:04;;;;;;;;;8.67;6.67;;;;;23.91;54.62;101414.75;5100264;27;45307;-74
2022/05/18 01:46:32;;;;;;;;;6.33;6.33;;;;;23.50;55.06;101351.81;5118125;27;45760;-74
2022/05/18 01:48:57;;;;;;;;;6.67;6.67;;;;;23.87;55.05;101418.13;5118202;27;45627;-73
2022/05/18 01:51:34;;;;;;;;;8.00;7.00;;;;;22.99;55.05;101284.75;5118844;27;45464;-73
2022/05/18 01:54:00;;;;;;;;;7.33;6.33;;;;;23.51;55.26;101365.16;5118582;27;45294;-74
2022/05/18 01:56:26;;;;;;;;;5.33;5.33;;;;;23.42;55.26;101352.88;5099639;27;48600;-73
2022/05/18 01:58:52;;;;;;;;;6.67;6.67;;;;;23.76;55.61;101430.47;5117998;27;45539;-75
2022/05/18 02:01:18;;;;;;;;;6.00;6.00;;;;;23.55;55.82;101390.00;5118249;27;45213;-73
2022/05/18 02:03:43;;;;;;;;;6.00;6.00;;;;;23.05;55.64;101308.34;5099742;27;45288;-73
2022/05/18 02:06:09;;;;;;;;;7.33;7.00;;;;;23.01;55.96;101316.03;5117729;27;45483;-72
2022/05/18 02:08:35;;;;;;;;;6.33;6.33;;;;;23.67;55.97;101418.19;5118060;27;45524;-72
2022/05/18 02:11:00;;;;;;;;;6.33;6.33;;;;;23.65;56.17;101431.16;5098801;27;45192;-75
2022/05/18 02:13:26;;;;;;;;;6.00;6.00;;;;;23.40;56.84;101397.56;5099642;27;45620;-73
2022/05/18 02:15:51;;;;;;;;;7.00;6.00;;;;;23.53;56.88;101436.34;5118314;27;46347;-74
2022/05/18 02:18:17;;;;;;;;;8.67;7.00;;;;;23.48;56.97;101448.91;5099204;27;45446;-74
2022/05/18 02:20:42;;;;;;;;;9.67;7.67;;;;;23.18;57.54;101414.09;5099405;27;45406;-73
2022/05/18 02:23:08;;;;;;;;;9.33;8.00;;;;;23.14;57.49;101404.69;5118150;27;45571;-74
2022/05/18 02:25:36;;;;;;;;;7.00;7.00;;;;;23.30;57.78;101455.81;5099401;27;47885;-72
2022/05/18 02:28:02;;;;;;;;;6.00;4.33;;;;;22.81;58.22;101384.88;5099309;27;45544;-72
2022/05/18 02:30:28;;;;;;;;;5.67;5.67;;;;;23.09;57.81;101445.19;5117663;27;45535;-73
2022/05/18 02:32:53;;;;;;;;;5.67;5.67;;;;;22.97;57.55;101428.69;5118411;27;45341;-76
2022/05/18 02:35:19;;;;;;;;;9.00;5.67;;;;;23.18;58.13;101472.94;5103080;27;46576;-72
2022/05/18 02:37:44;;;;;;;;;7.00;7.00;;;;;22.86;57.83;101425.78;5118406;27;45463;-74
2022/05/18 02:40:11;;;;;;;;;6.00;5.00;;;;;22.78;58.16;101427.63;5118041;27;45238;-72
2022/05/18 02:42:37;;;;;;;;;4.33;4.00;;;;;23.04;57.93;101477.53;5118010;27;45555;-74
2022/05/18 02:45:04;;;;;;;;;4.33;3.33;;;;;22.28;57.92;101376.72;5098856;27;47655;-71
2022/05/18 02:47:29;;;;;;;;;6.67;6.67;;;;;22.36;58.33;101406.31;5098977;27;45558;-75
2022/05/18 02:49:55;;;;;;;;;6.00;6.00;;;;;22.82;57.90;101500.44;5118499;27;45507;-73
2022/05/18 02:52:20;;;;;;;;;5.00;5.00;;;;;22.82;57.95;101486.88;5100347;27;45280;-73
2022/05/18 02:57:31;;;;;;;;;4.00;4.00;;;;;22.58;57.76;101469.28;5117601;27;45337;-75
2022/05/18 02:59:56;;;;;;;;;6.67;4.67;;;;;22.65;57.39;101500.81;5098950;27;45425;-73
2022/05/18 03:02:22;;;;;;;;;3.00;3.00;;;;;22.63;57.54;101502.06;5117622;27;45345;-71
2022/05/18 03:04:47;;;;;;;;;4.00;4.00;;;;;22.22;57.21;101442.50;5117337;27;45659;-74
2022/05/18 03:07:12;;;;;;;;;3.33;3.33;;;;;21.74;57.53;101369.44;5117262;27;45486;-73
2022/05/18 03:09:38;;;;;;;;;3.00;3.00;;;;;22.49;57.37;101493.06;5117470;27;45436;-71
2022/05/18 03:12:04;;;;;;;;;4.00;4.00;;;;;22.49;57.22;101487.63;5117600;27;45279;-74
2022/05/18 03:14:29;;;;;;;;;3.00;3.00;;;;;22.34;57.47;101476.13;5098513;27;48534;-73
2022/05/18 03:16:55;;;;;;;;;1.67;1.67;;;;;22.37;57.68;101494.66;5117171;27;45516;-71
2022/05/18 03:19:20;;;;;;;;;4.67;4.33;;;;;22.33;57.40;101496.13;5117427;27;45204;-71
2022/05/18 03:24:30;;;;;;;;;3.33;2.33;;;;;22.02;57.00;101445.97;5120297;27;45429;-72
2022/05/18 03:26:56;;;;;;;;;3.00;3.00;;;;;22.33;56.42;101504.25;5120351;27;45282;-72
2022/05/18 03:29:21;;;;;;;;;3.00;3.00;;;;;22.30;55.62;101504.66;5120540;27;45695;-73
2022/05/18 03:31:48;;;;;;;;;1.00;1.00;;;;;22.02;55.14;101485.72;5120545;27;45259;-73
2022/05/18 03:34:14;;;;;;;;;5.67;3.00;;;;;21.87;55.40;101475.06;5101864;27;47672;-75
2022/05/18 03:36:40;;;;;;;;;1.00;1.00;;;;;22.06;55.42;101509.56;5120571;27;45417;-74
2022/05/18 03:39:07;;;;;;;;;2.00;2.00;;;;;21.73;55.52;101470.59;5120530;27;45267;-73
2022/05/18 03:41:35;;;;;;;;;3.00;2.00;;;;;21.96;55.91;101536.13;5120526;27;45484;-75
2022/05/18 03:44:05;;;;;;;;;2.00;2.00;;;;;21.75;56.75;101501.00;5120047;27;45723;-74
2022/05/18 03:46:31;;;;;;;;;2.00;2.00;;;;;21.76;56.81;101521.63;5101613;27;46435;-72
2022/05/18 03:48:58;;;;;;;;;4.00;4.00;;;;;21.77;56.78;101515.19;5120719;27;45535;-76
2022/05/18 03:51:23;;;;;;;;;3.00;3.00;;;;;21.82;57.14;101528.94;5123958;27;45413;-74
2022/05/18 03:53:49;;;;;;;;;2.67;2.67;;;;;21.92;57.52;101550.25;5102241;27;47491;-76
2022/05/18 03:56:15;;;;;;;;;3.00;3.00;;;;;21.69;56.84;101509.94;5120418;27;45558;-74
2022/05/18 03:58:41;;;;;;;;;2.00;2.00;;;;;21.70;56.70;101523.28;5120403;27;45558;-74
2022/05/18 04:01:10;;;;;;;;;4.00;3.00;;;;;21.26;56.33;101458.66;5120380;27;45426;-74
2022/05/18 04:03:40;;;;;;;;;3.00;3.00;;;;;21.79;54.99;101554.53;5120155;27;46509;-73
2022/05/18 04:06:07;;;;;;;;;2.33;2.33;;;;;21.64;54.55;101544.88;5101468;27;45620;-74
2022/05/18 04:08:35;;;;;;;;;2.33;2.33;;;;;21.62;54.45;101547.75;5120004;27;45399;-74
2022/05/18 04:11:00;;;;;;;;;3.00;2.00;;;;;21.23;54.47;101491.47;5101293;27;45589;-76
2022/05/18 04:13:26;;;;;;;;;2.00;2.00;;;;;21.74;53.74;101575.97;5119528;27;46392;-74
2022/05/18 04:15:52;;;;;;;;;1.00;1.00;;;;;21.55;53.75;101558.53;5119581;27;45310;-74
2022/05/18 04:18:18;;;;;;;;;1.00;0.67;;;;;21.09;53.49;101484.28;5101068;27;45555;-75
2022/05/18 04:20:44;;;;;;;;;0.67;0.67;;;;;21.66;53.56;101578.00;5119709;27;45613;-76
2022/05/18 04:23:12;;;;;;;;;1.00;1.00;;;;;21.24;54.12;101521.06;5119223;27;45728;-74
2022/05/18 04:25:39;;;;;;;;;1.33;1.33;;;;;21.48;53.47;101573.91;5119904;27;45252;-74
2022/05/18 04:28:05;;;;;;;;;1.67;1.67;;;;;21.56;53.51;101583.72;5100987;27;45481;-74
2022/05/18 04:30:31;;;;;;;;;1.00;1.00;;;;;21.30;53.40;101551.88;5119638;27;45373;-75
2022/05/18 04:32:58;;;;;;;;;1.00;1.00;;;;;20.59;53.09;101438.28;5100472;27;48433;-74
2022/05/18 04:35:26;;;;;;;;;1.00;1.00;;;;;20.99;53.64;101505.38;5118520;27;45541;-73
2022/05/18 04:37:52;;;;;;;;;3.00;2.00;;;;;21.29;53.39;101566.44;5119595;27;45310;-73
2022/05/18 04:40:18;;;;;;;;;2.33;1.33;;;;;21.28;53.28;101562.06;5119696;27;45371;-74
2022/05/18 04:42:44;;;;;;;;;1.00;1.00;;;;;21.01;52.81;101524.94;5119556;27;46260;-75
2022/05/18 04:45:12;;;;;;;;;0.00;0.00;;;;;21.05;52.98;101537.91;5119861;27;45377;-75
2022/05/18 04:47:38;;;;;;;;;2.00;2.00;;;;;21.26;52.81;101561.44;5101188;27;45342;-74
2022/05/18 04:50:05;;;;;;;;;1.00;1.00;;;;;21.33;52.74;101583.94;5101104;27;45568;-73
2022/05/18 04:52:31;;;;;;;;;2.00;2.00;;;;;21.08;53.45;101558.31;5101119;27;47372;-77
2022/05/18 04:54:56;;;;;;;;;4.67;2.00;;;;;21.28;53.23;101610.75;5101322;27;45439;-72
2022/05/18 04:57:22;;;;;;;;;1.00;1.00;;;;;21.22;53.00;101593.41;5119667;27;45425;-75
2022/05/18 04:59:48;;;;;;;;;5.00;2.00;;;;;21.18;53.11;101607.47;5119466;27;45350;-75
2022/05/18 05:02:15;;;;;;;;;2.00;1.33;;;;;21.01;53.39;101570.91;5119230;27;45371;-73
2022/05/18 05:04:41;;;;;;;;;1.33;1.33;;;;;18.90;53.14;101221.84;5102024;27;45323;-74
2022/05/18 05:07:06;;;;;;;;;1.00;1.00;;;;;21.00;53.05;101578.19;5127014;27;45305;-73
2022/05/18 05:09:32;;;;;;;;;1.33;1.33;;;;;20.10;53.10;101435.44;5123201;27;45228;-75
2022/05/18 05:12:01;;;;;;;;;1.67;1.67;;;;;20.79;53.25;101568.19;5118517;27;45601;-73
2022/05/18 05:14:27;;;;;;;;;3.00;1.00;;;;;20.22;53.54;101470.84;5118873;27;45337;-76
2022/05/18 05:16:53;;;;;;;;;2.00;2.00;;;;;21.09;53.48;101620.31;5119186;27;45410;-73
2022/05/18 05:19:18;;;;;;;;;3.00;3.00;;;;;21.03;53.74;101625.66;5118897;27;45555;-75
2022/05/18 05:21:44;;;;;;;;;3.67;2.00;;;;;20.16;53.71;101490.53;5118381;27;47749;-74
2022/05/18 05:24:10;;;;;;;;;1.67;1.00;;;;;20.69;53.18;101573.06;5118500;27;45442;-74
2022/05/18 05:26:36;;;;;;;;;3.33;1.67;;;;;20.78;53.24;101587.28;5100308;27;45444;-76
2022/05/18 05:29:01;;;;;;;;;1.00;1.00;;;;;21.10;53.09;101642.78;5119040;27;45384;-76
2022/05/18 05:31:27;;;;;;;;;1.67;1.67;;;;;20.25;53.18;101502.91;5099895;27;46595;-76
2022/05/18 05:33:53;;;;;;;;;1.00;1.00;;;;;20.95;52.78;101615.78;5099347;27;45509;-77
2022/05/18 05:36:19;;;;;;;;;1.67;1.67;;;;;20.75;53.33;101575.00;5100554;27;45530;-77
2022/05/18 05:38:45;;;;;;;;;2.00;2.00;;;;;21.04;52.85;101638.13;5100187;27;45261;-75
2022/05/18 05:41:10;;;;;;;;;1.33;1.33;;;;;20.81;53.18;101603.13;5118204;27;46600;-78
2022/05/18 05:43:36;;;;;;;;;3.67;2.00;;;;;21.16;53.01;101658.22;5119130;27;45173;-75
2022/05/18 05:46:05;;;;;;;;;1.33;1.33;;;;;21.21;52.84;101661.19;5118599;27;45225;-78
2022/05/18 05:48:33;;;;;;;;;1.33;1.33;;;;;21.24;52.71;101666.25;5101057;27;45540;-78
2022/05/18 05:51:00;;;;;;;;;2.00;2.00;;;;;21.26;52.34;101664.22;5100228;27;47464;-80
2022/05/18 05:53:26;;;;;;;;;1.33;1.33;;;;;21.27;52.46;101671.28;5100211;27;45418;-77
2022/05/18 05:55:53;;;;;;;;;1.00;1.00;;;;;20.72;52.58;101580.78;5118428;27;45356;-78
2022/05/18 05:58:21;;;;;;;;;1.67;1.00;;;;;21.05;52.68;101626.28;5119126;27;45564;-78
2022/05/18 06:00:47;;;;;;;;;2.00;2.00;;;;;20.67;52.20;101558.91;5100262;27;46564;-77
2022/05/18 06:03:20;;;;;;;;;1.00;1.00;;;;;21.40;52.38;101657.88;5100356;27;45433;-79
2022/05/18 06:05:46;;;;;;;;;4.00;2.00;;;;;21.46;51.98;101653.59;5100149;27;45346;-72
2022/05/18 06:08:11;;;;;;;;;1.33;1.33;;;;;21.31;52.01;101602.25;5100250;27;45551;-72
2022/05/18 06:10:37;;;;;;;;;2.00;2.00;;;;;21.94;50.57;101640.25;5117845;27;46016;-73
2022/05/18 06:13:10;;;;;;;;;4.33;1.67;;;;;22.89;50.18;101666.72;5118085;27;45424;-74
2022/05/18 06:15:36;;;;;;;;;1.00;1.00;;;;;23.33;47.66;101601.91;5099466;27;45295;-74
2022/05/18 06:18:02;;;;;;;;;2.33;2.33;;;;;24.53;45.79;101671.44;5118448;27;45513;-74
2022/05/18 06:20:29;;;;;;;;;2.67;2.67;;;;;24.78;43.85;101567.38;5098948;27;48063;-75
2022/05/18 06:22:57;;;;;;;;;3.00;1.00;;;;;26.20;42.40;101672.09;5099826;27;45514;-72
2022/05/18 06:25:25;;;;;;;;;2.00;1.00;;;;;27.00;39.86;101655.72;5099580;27;45260;-75
2022/05/18 06:27:50;;;;;;;;;3.33;2.00;;;;;27.50;38.91;101632.50;5118869;27;45477;-76
2022/05/18 06:30:22;;;;;;;;;3.00;3.00;;;;;27.99;37.12;101633.16;5099481;27;46799;-77
2022/05/18 06:32:47;;;;;;;;;2.00;2.00;;;;;28.57;36.97;101656.91;5099325;27;45683;-72
2022/05/18 06:35:13;;;;;;;;;3.67;1.00;;;;;29.02;35.63;101661.66;5118575;27;45376;-74
2022/05/18 06:37:39;;;;;;;;;0.00;0.00;;;;;29.04;34.12;101624.78;5099576;27;45511;-76
2022/05/18 06:40:07;;;;;;;;;1.33;1.33;;;;;27.80;34.06;101374.75;5117709;27;46369;-72
2022/05/18 06:42:33;;;;;;;;;0.33;0.33;;;;;29.80;32.76;101649.09;5117739;27;45217;-72
2022/05/18 06:45:00;;;;;;;;;2.00;2.00;;;;;29.99;32.80;101636.78;5099261;27;45287;-72
2022/05/18 06:47:26;;;;;;;;;3.67;3.00;;;;;30.41;30.91;101671.97;5099353;27;45457;-75
2022/05/18 06:49:52;;;;;;;;;2.00;2.00;;;;;30.83;32.33;101680.50;5118066;27;45563;-74
2022/05/18 06:52:19;;;;;;;;;1.00;1.00;;;;;31.02;31.30;101629.63;5099484;27;46304;-75
2022/05/18 06:54:45;;;;;;;;;2.00;2.00;;;;;31.62;30.12;101667.03;5100388;27;45462;-75
2022/05/18 06:57:11;;;;;;;;;3.33;3.00;;;;;31.54;29.51;101618.06;5119242;27;45281;-74
2022/05/18 06:59:36;;;;;;;;;2.00;1.00;;;;;32.16;28.97;101655.94;5121782;27;46146;-75
2022/05/18 07:02:02;;;;;;;;;2.33;1.00;;;;;32.36;28.45;101645.06;5120965;27;45428;-73
2022/05/18 07:04:28;;;;;;;;;3.33;1.00;;;;;32.65;28.04;101652.91;5102575;27;45487;-71
2022/05/18 07:06:54;;;;;;;;;2.00;2.00;;;;;32.86;27.71;101662.94;5121300;27;45211;-73
2022/05/18 07:09:21;;;;;;;;;2.00;1.00;;;;;32.97;28.33;101653.56;5120883;27;45339;-74
2022/05/18 07:11:49;;;;;;;;;1.67;1.67;;;;;32.76;27.34;101627.03;5120892;27;45488;-73
2022/05/18 07:14:19;;;;;;;;;2.00;2.00;;;;;32.76;27.37;101643.56;5121142;27;45330;-71
2022/05/18 07:16:45;;;;;;;;;2.00;1.00;;;;;32.89;27.68;101647.78;5102511;27;45593;-73
2022/05/18 07:19:11;;;;;;;;;1.00;1.00;;;;;33.32;27.43;101660.28;5121007;27;45528;-72
2022/05/18 07:21:36;;;;;;;;;1.00;1.00;;;;;33.03;26.55;101626.84;5120941;27;45551;-73
2022/05/18 07:24:02;;;;;;;;;0.33;0.33;;;;;32.97;27.30;101628.78;5120576;27;45138;-73
2022/05/18 07:26:29;;;;;;;;;2.00;2.00;;;;;32.56;26.77;101602.19;5120990;27;45481;-75
2022/05/18 07:28:55;;;;;;;;;3.00;2.00;;;;;33.13;27.39;101659.97;5102306;27;45915;-71
2022/05/18 07:31:21;;;;;;;;;3.00;1.33;;;;;32.73;27.41;101555.16;5102281;27;45313;-72
2022/05/18 07:33:50;;;;;;;;;6.00;6.00;;;;;33.68;27.15;101654.78;5120082;27;45383;-72
2022/05/18 07:36:17;;;;;;;;;1.67;1.67;;;;;33.32;25.77;101552.78;5102550;27;45510;-72
2022/05/18 07:38:42;;;;;;;;;2.67;2.00;;;;;34.08;25.75;101652.00;5119966;27;45773;-73
2022/05/18 07:41:11;;;;;;;;;16.00;13.33;;;;;34.56;25.42;101666.22;5120934;27;45299;-70
2022/05/18 07:43:37;;;;;;;;;8.00;5.67;;;;;34.74;25.01;101628.88;5083128;27;45543;-73
2022/05/18 07:46:04;;;;;;;;;5.00;3.00;;;;;35.35;25.13;101670.81;5097963;27;45517;-71
2022/05/18 07:48:30;;;;;;;;;4.00;4.00;;;;;35.21;24.76;101667.00;5096961;27;45525;-71
2022/05/18 07:50:58;;;;;;;;;2.00;2.00;;;;;34.86;25.26;101634.09;5098737;27;45235;-71
2022/05/18 07:53:24;;;;;;;;;2.00;2.00;;;;;34.29;25.29;101583.75;5100039;27;45334;-71
2022/05/18 07:55:50;;;;;;;;;2.00;2.00;;;;;34.47;25.88;101662.41;5099030;27;45344;-73
2022/05/18 07:58:19;;;;;;;;;3.33;2.00;;;;;34.48;26.61;101664.06;5080765;27;46253;-72
2022/05/18 08:00:46;;;;;;;;;2.33;2.00;;;;;33.87;26.83;101562.13;5081006;27;45969;-70
2022/05/18 08:03:12;;;;;;;;;3.67;2.00;;;;;34.65;25.66;101663.72;5099138;27;45577;-80
2022/05/18 08:05:42;;;;;;;;;3.00;3.00;;;;;34.65;25.89;101656.25;5100368;27;45459;-71
2022/05/18 08:08:12;;;;;;;;;3.00;2.67;;;;;34.61;26.07;101641.34;5099593;27;46117;-71
2022/05/18 08:16:08;;;;;;;;;3.00;1.67;;;;;34.21;27.26;101624.91;5120234;27;45215;-71
2022/05/18 08:18:33;;;;;;;;;4.00;3.00;;;;;34.61;26.55;101668.13;5119453;27;45358;-78
2022/05/18 08:20:59;;;;;;;;;2.00;2.00;;;;;34.49;26.15;101627.06;5118617;27;46162;-74
2022/05/18 08:23:25;;;;;;;;;5.00;5.00;;;;;34.66;26.06;101635.81;5120154;27;45422;-75
2022/05/18 08:25:54;;;;;;;;;3.00;3.00;;;;;34.92;26.38;101666.91;5120258;27;45346;-74
2022/05/18 08:28:19;;;;;;;;;5.00;4.00;;;;;34.65;26.15;101617.59;5119444;27;45241;-79
2022/05/18 08:30:45;;;;;;;;;4.00;4.00;;;;;34.59;25.78;101660.13;5086017;27;45690;-73
2022/05/18 08:33:11;;;;;;;;;5.67;5.67;;;;;34.10;26.11;101600.13;5099214;27;45723;-71
2022/05/18 08:35:37;;;;;;;;;3.00;3.00;;;;;34.26;26.91;101634.03;5085153;27;45379;-74
2022/05/18 08:38:03;;;;;;;;;3.00;3.00;;;;;34.23;26.45;101653.06;5101084;27;46049;-73
2022/05/18 08:40:28;;;;;;;;;2.67;2.67;;;;;34.06;27.41;101654.22;5106808;27;45472;-71
2022/05/18 08:43:14;;;;;;;;;2.00;2.00;;;;;33.67;26.99;101612.59;5080431;27;45630;-72
2022/05/18 08:45:48;;;;;;;;;3.00;2.67;;;;;33.61;27.90;101637.69;5099394;27;45655;-70
2022/05/18 08:48:41;;;;;;;;;3.00;2.67;;;;;32.96;28.18;101621.63;5079814;27;47144;-70
2022/05/18 08:51:33;;;;;;;;;3.00;2.00;;;;;32.34;29.31;101548.19;5099403;27;45447;-71
2022/05/18 08:54:23;;;;;;;;;5.00;3.00;;;;;32.94;28.96;101648.63;5047516;27;45997;-71
2022/05/18 08:56:53;;;;;;;;;2.67;2.67;;;;;32.93;29.51;101619.41;5082550;27;45539;-70
2022/05/18 08:59:25;;;;;;;;;3.67;3.67;;;;;32.17;28.91;101489.75;5098882;27;45834;-71
2022/05/18 09:01:56;;;;;;;;;4.00;2.67;;;;;33.16;29.09;101644.78;5079517;27;45834;-71
2022/05/18 09:04:23;;;;;;;;;4.00;2.00;;;;;32.57;28.86;101535.03;5098990;27;45508;-72
2022/05/18 09:07:02;;;;;;;;;4.33;4.00;;;;;33.19;28.99;101631.28;5098144;27;45496;-71
2022/05/18 09:12:28;;;;;;;;;2.00;2.00;;;;;32.90;29.13;101636.50;5098842;27;45395;-69
2022/05/18 09:14:55;;;;;;;;;2.00;2.00;;;;;32.85;29.43;101614.44;5080510;27;45555;-72
2022/05/18 09:17:32;;;;;;;;;4.67;4.67;;;;;32.93;29.50;101630.44;5098963;27;45987;-71
2022/05/18 09:20:24;;;;;;;;;3.00;3.00;;;;;33.08;29.39;101628.81;5097657;27;46603;-72
2022/05/18 09:23:03;;;;;;;;;2.67;2.67;;;;;32.98;29.54;101605.63;5041531;27;46138;-70
2022/05/18 09:25:42;;;;;;;;;3.00;3.00;;;;;32.85;29.39;101578.66;5098943;27;45272;-71
2022/05/18 09:28:39;;;;;;;;;3.00;2.67;;;;;33.34;28.82;101622.25;5099283;27;45497;-72
2022/05/18 09:31:21;;;;;;;;;3.00;3.00;;;;;33.33;28.63;101592.22;5098302;27;46893;-70
2022/05/18 09:34:05;;;;;;;;;1.67;1.67;;;;;33.69;28.90;101620.59;5097830;27;45258;-71
2022/05/18 09:36:55;;;;;;;;;5.00;4.00;;;;;34.16;27.85;101623.00;5097950;27;45252;-68
2022/05/18 09:39:26;;;;;;;;;3.00;3.00;;;;;34.34;28.08;101629.84;5098101;27;45303;-74
2022/05/18 09:42:02;;;;;;;;;3.00;3.00;;;;;34.54;27.81;101632.56;5079490;27;48252;-72
2022/05/18 09:44:50;;;;;;;;;2.33;2.00;;;;;35.04;27.25;101619.56;5097917;27;45296;-71
2022/05/18 09:47:20;;;;;;;;;2.33;2.33;;;;;35.33;26.55;101617.72;5098127;27;45396;-73
2022/05/18 09:49:56;;;;;;;;;6.50;4.50;;;;;35.71;26.57;101601.34;5098119;27;45499;-70
2022/05/18 09:52:28;;;;;;;;;3.00;3.00;;;;;35.92;25.80;101577.91;5097866;27;45438;-70
2022/05/18 09:54:56;;;;;;;;;3.33;3.33;;;;;36.22;24.85;101553.75;5079311;27;45485;-72
2022/05/18 09:57:53;;;;;;;;;3.67;3.00;;;;;36.65;24.87;101610.00;5079380;27;45346;-73
2022/05/18 10:00:24;;;;;;;;;4.00;4.00;;;;;36.15;24.57;101544.97;5074523;27;45578;-72
2022/05/18 10:08:35;;;;;;;;;2.33;2.33;;;;;34.91;26.13;101595.38;5098925;27;45363;-74
2022/05/18 10:11:10;;;;;;;;;2.67;2.67;;;;;34.46;27.64;101595.31;5098914;27;45526;-73
2022/05/18 10:13:43;;;;;;;;;2.00;2.00;;;;;34.02;27.92;101588.81;5077972;27;47906;-73
2022/05/18 10:16:19;;;;;;;;;3.00;3.00;;;;;33.49;28.69;101586.41;5078513;27;45538;-71
2022/05/18 10:18:48;;;;;;;;;3.00;3.00;;;;;32.63;29.13;101564.22;5079102;27;45331;-68
2022/05/18 10:21:20;;;;;;;;;4.00;3.33;;;;;32.24;29.77;101589.41;5097839;27;45519;-72
2022/05/18 10:24:08;;;;;;;;;3.67;3.00;;;;;31.64;31.31;101582.41;5098007;27;45322;-72
2022/05/18 10:26:38;;;;;;;;;3.33;2.67;;;;;29.30;31.30;101233.56;5098338;27;45482;-71
2022/05/18 10:29:25;;;;;;;;;2.00;2.00;;;;;30.80;31.80;101543.72;5079392;27;45416;-71
2022/05/18 10:32:10;;;;;;;;;2.00;2.00;;;;;30.22;32.58;101504.09;5098070;27;45394;-74
2022/05/18 10:34:51;;;;;;;;;3.33;2.67;;;;;30.32;32.80;101548.13;5101423;27;46348;-75
2022/05/18 10:37:37;;;;;;;;;1.00;1.00;;;;;30.34;33.16;101567.91;5101133;27;45236;-77
2022/05/18 10:40:04;;;;;;;;;2.00;2.00;;;;;30.19;33.56;101565.78;5082617;27;45284;-74
2022/05/18 10:42:41;;;;;;;;;3.33;3.33;;;;;29.96;33.60;101555.84;5101302;27;45506;-74
2022/05/18 10:45:22;;;;;;;;;2.67;2.67;;;;;29.52;33.89;101532.19;5100966;27;47551;-74
2022/05/18 10:47:50;;;;;;;;;4.00;3.00;;;;;29.48;34.60;101564.75;5101204;27;45276;-77
2022/05/18 10:50:21;;;;;;;;;3.67;2.33;;;;;29.35;35.34;101557.66;5101520;27;45336;-76
2022/05/18 10:52:48;;;;;;;;;3.67;3.00;;;;;29.06;35.83;101539.66;5101898;27;45295;-75
2022/05/18 10:55:16;;;;;;;;;3.33;3.33;;;;;28.78;35.64;101515.84;5107395;27;46675;-74
2022/05/18 10:57:52;;;;;;;;;4.00;4.00;;;;;27.96;35.68;101414.97;5115616;27;46075;-71
2022/05/18 11:00:20;;;;;;;;;2.00;2.00;;;;;28.61;35.72;101554.09;5106399;27;45499;-74
2022/05/18 11:03:20;;;;;;;;;6.67;5.67;;;;;28.53;36.29;101540.81;5092880;27;45257;-73
2022/05/18 11:05:53;;;;;;;;;2.33;2.33;;;;;28.53;35.65;101540.00;5099487;27;47285;-76
2022/05/18 11:08:24;;;;;;;;;3.67;3.33;;;;;28.52;36.15;101535.59;5101349;27;45406;-75
2022/05/18 11:10:59;;;;;;;;;4.00;4.00;;;;;25.85;36.45;101102.47;5102150;27;45498;-79
2022/05/18 11:13:33;;;;;;;;;2.67;2.00;;;;;28.42;36.37;101537.03;5082215;27;45549;-74
2022/05/18 11:16:21;;;;;;;;;3.00;2.33;;;;;28.36;36.87;101542.66;5099857;27;46966;-77
2022/05/18 11:18:52;;;;;;;;;3.33;3.33;;;;;28.35;37.17;101538.25;5112764;27;45488;-74
2022/05/18 11:21:32;;;;;;;;;1.33;1.33;;;;;28.30;35.66;101543.63;5101840;27;45432;-74
2022/05/18 11:24:20;;;;;;;;;3.67;3.67;;;;;27.98;35.53;101497.56;5089565;27;45515;-73
2022/05/18 11:27:25;;;;;;;;;3.00;3.00;;;;;28.17;36.85;101544.69;5102651;27;47985;-72
2022/05/18 11:30:17;;;;;;;;;3.00;3.00;;;;;28.20;36.78;101536.00;5116454;27;45255;-73
2022/05/18 11:33:09;;;;;;;;;6.33;4.00;;;;;28.20;36.53;101527.81;5102795;27;45308;-75
2022/05/18 11:36:11;;;;;;;;;5.67;4.00;;;;;28.16;37.52;101524.72;5103215;27;45195;-75
2022/05/18 11:38:56;;;;;;;;;3.00;3.00;;;;;27.67;37.12;101435.16;5120522;27;45349;-74
2022/05/18 11:41:56;;;;;;;;;2.33;2.33;;;;;28.22;36.20;101527.56;5118172;27;45508;-73
2022/05/18 11:44:25;;;;;;;;;3.67;3.00;;;;;28.06;34.51;101521.81;5078058;27;45308;-74
2022/05/18 11:47:07;;;;;;;;;2.33;2.33;;;;;27.93;34.64;101505.66;5121120;27;45366;-75
2022/05/18 11:49:33;;;;;;;;;3.67;3.67;;;;;28.08;36.14;101514.19;5121014;27;46708;-71
2022/05/18 11:52:31;;;;;;;;;4.00;4.00;;;;;28.15;36.35;101512.13;5120418;27;45473;-77
2022/05/18 11:55:28;;;;;;;;;4.33;2.00;;;;;28.16;34.71;101494.66;5103157;27;45423;-73
2022/05/18 11:58:13;;;;;;;;;3.67;3.00;;;;;28.13;36.17;101500.59;5102697;27;45587;-73